ASL83D LYBE-LIBD
Flight info
| Callsign | ASL83D |
|---|---|
| Flight time | 1h 21m |
| Altitude | 19000 |
| Route | VAL N732 POD W36 CRAYE Z636 ENOXA |
| Aircraft | AT76/M-SDFGIRY/S |
Departure
| Time | 2026-05-07 16:25 |
|---|---|
| Airport | Belgrade Nikola Tesla Airport (LYBE) |
Arrival
| Time | 2026-05-07 17:47 |
|---|---|
| Airport | Bari Karol Wojtyła International Airport (LIBD) |
| Time | Latitude | Longitude | Altitude | Speed | Heading |
|---|---|---|---|---|---|
| 2026-05-07 15:46 | 44.81894 | 20.29565 | 303 ft | 0 kts | 122° |
| 2026-05-07 16:18 | 44.81898 | 20.29556 | 303 ft | 3 kts | 122° |
| 2026-05-07 16:18 | 44.81915 | 20.29517 | 303 ft | 6 kts | 122° |
| 2026-05-07 16:18 | 44.81922 | 20.29496 | 304 ft | 2 kts | 59° |
| 2026-05-07 16:18 | 44.81931 | 20.29498 | 305 ft | 6 kts | 28° |
| 2026-05-07 16:19 | 44.81987 | 20.29545 | 303 ft | 12 kts | 32° |
| 2026-05-07 16:19 | 44.82057 | 20.29608 | 304 ft | 9 kts | 33° |
| 2026-05-07 16:19 | 44.82069 | 20.29694 | 307 ft | 11 kts | 118° |
| 2026-05-07 16:19 | 44.82026 | 20.29791 | 303 ft | 12 kts | 122° |
| 2026-05-07 16:20 | 44.81979 | 20.29898 | 304 ft | 13 kts | 122° |
| 2026-05-07 16:20 | 44.81929 | 20.30010 | 303 ft | 14 kts | 122° |
| 2026-05-07 16:20 | 44.81882 | 20.30116 | 303 ft | 8 kts | 121° |
| 2026-05-07 16:20 | 44.81850 | 20.30191 | 305 ft | 10 kts | 121° |
| 2026-05-07 16:21 | 44.81811 | 20.30280 | 305 ft | 11 kts | 122° |
| 2026-05-07 16:21 | 44.81766 | 20.30378 | 304 ft | 13 kts | 122° |
| 2026-05-07 16:21 | 44.81710 | 20.30504 | 304 ft | 17 kts | 122° |
| 2026-05-07 16:21 | 44.81643 | 20.30657 | 304 ft | 20 kts | 122° |
| 2026-05-07 16:22 | 44.81565 | 20.30831 | 305 ft | 22 kts | 122° |
| 2026-05-07 16:22 | 44.81479 | 20.31024 | 304 ft | 24 kts | 122° |
| 2026-05-07 16:22 | 44.81387 | 20.31232 | 303 ft | 26 kts | 122° |
| 2026-05-07 16:22 | 44.81293 | 20.31444 | 302 ft | 26 kts | 122° |
| 2026-05-07 16:23 | 44.81195 | 20.31665 | 304 ft | 27 kts | 122° |
| 2026-05-07 16:23 | 44.81094 | 20.31894 | 303 ft | 28 kts | 122° |
| 2026-05-07 16:23 | 44.81020 | 20.32061 | 304 ft | 15 kts | 122° |
| 2026-05-07 16:23 | 44.80993 | 20.32199 | 304 ft | 16 kts | 72° |
| 2026-05-07 16:24 | 44.81080 | 20.32297 | 302 ft | 16 kts | 14° |
| 2026-05-07 16:24 | 44.81190 | 20.32312 | 303 ft | 15 kts | 359° |
| 2026-05-07 16:24 | 44.81258 | 20.32231 | 305 ft | 11 kts | 302° |
| 2026-05-07 16:24 | 44.81366 | 20.31987 | 305 ft | 59 kts | 302° |
| 2026-05-07 16:25 | 44.81682 | 20.31275 | 302 ft | 112 kts | 302° |
| 2026-05-07 16:25 | 44.82133 | 20.30241 | 633 ft | 123 kts | 298° |
| 2026-05-07 16:25 | 44.82577 | 20.29218 | 1237 ft | 124 kts | 297° |
| 2026-05-07 16:25 | 44.82780 | 20.28038 | 1599 ft | 133 kts | 255° |
| 2026-05-07 16:26 | 44.82189 | 20.27004 | 1770 ft | 147 kts | 215° |
| 2026-05-07 16:26 | 44.81274 | 20.26122 | 1912 ft | 167 kts | 212° |
| 2026-05-07 16:26 | 44.80293 | 20.25210 | 2314 ft | 171 kts | 215° |
| 2026-05-07 16:26 | 44.79302 | 20.24261 | 2720 ft | 173 kts | 212° |
| 2026-05-07 16:27 | 44.78270 | 20.23414 | 3094 ft | 174 kts | 209° |
| 2026-05-07 16:27 | 44.77200 | 20.22597 | 3525 ft | 174 kts | 208° |
| 2026-05-07 16:27 | 44.76125 | 20.21792 | 3950 ft | 175 kts | 208° |
| 2026-05-07 16:27 | 44.75039 | 20.20974 | 4359 ft | 177 kts | 210° |
| 2026-05-07 16:28 | 44.73971 | 20.20149 | 4789 ft | 177 kts | 210° |
| 2026-05-07 16:28 | 44.72891 | 20.19302 | 5150 ft | 179 kts | 210° |
| 2026-05-07 16:28 | 44.71803 | 20.18435 | 5562 ft | 179 kts | 211° |
| 2026-05-07 16:28 | 44.70722 | 20.17545 | 5973 ft | 179 kts | 212° |
| 2026-05-07 16:29 | 44.69659 | 20.16673 | 6380 ft | 180 kts | 211° |
| 2026-05-07 16:29 | 44.68570 | 20.15801 | 6745 ft | 180 kts | 211° |
| 2026-05-07 16:29 | 44.67479 | 20.14935 | 7110 ft | 180 kts | 211° |
| 2026-05-07 16:29 | 44.66385 | 20.14069 | 7480 ft | 180 kts | 211° |
| 2026-05-07 16:30 | 44.65302 | 20.13215 | 7837 ft | 181 kts | 211° |
| 2026-05-07 16:30 | 44.64197 | 20.12345 | 8182 ft | 181 kts | 211° |
| 2026-05-07 16:30 | 44.63092 | 20.11475 | 8537 ft | 182 kts | 211° |
| 2026-05-07 16:30 | 44.61986 | 20.10604 | 8888 ft | 183 kts | 211° |
| 2026-05-07 16:31 | 44.60875 | 20.09730 | 9270 ft | 183 kts | 211° |
| 2026-05-07 16:31 | 44.59777 | 20.08866 | 9629 ft | 183 kts | 211° |
| 2026-05-07 16:31 | 44.58661 | 20.07988 | 9980 ft | 184 kts | 211° |
| 2026-05-07 16:31 | 44.57540 | 20.07107 | 10284 ft | 185 kts | 211° |
| 2026-05-07 16:32 | 44.56416 | 20.06223 | 10571 ft | 186 kts | 211° |
| 2026-05-07 16:32 | 44.55282 | 20.05333 | 10863 ft | 187 kts | 211° |
| 2026-05-07 16:32 | 44.54141 | 20.04436 | 11162 ft | 188 kts | 211° |
| 2026-05-07 16:32 | 44.53004 | 20.03543 | 11455 ft | 189 kts | 211° |
| 2026-05-07 16:33 | 44.51850 | 20.02637 | 11743 ft | 190 kts | 211° |
| 2026-05-07 16:33 | 44.50689 | 20.01726 | 12030 ft | 191 kts | 211° |
| 2026-05-07 16:33 | 44.49523 | 20.00812 | 12315 ft | 193 kts | 211° |
| 2026-05-07 16:33 | 44.48361 | 19.99903 | 12593 ft | 194 kts | 211° |
| 2026-05-07 16:34 | 44.47182 | 19.98978 | 12877 ft | 195 kts | 211° |
| 2026-05-07 16:34 | 44.45994 | 19.98048 | 13163 ft | 196 kts | 211° |
| 2026-05-07 16:34 | 44.44800 | 19.97112 | 13459 ft | 197 kts | 211° |
| 2026-05-07 16:34 | 44.43616 | 19.96186 | 13741 ft | 198 kts | 211° |
| 2026-05-07 16:35 | 44.42410 | 19.95244 | 13993 ft | 199 kts | 211° |
| 2026-05-07 16:35 | 44.41196 | 19.94296 | 14227 ft | 199 kts | 211° |
| 2026-05-07 16:35 | 44.39981 | 19.93347 | 14472 ft | 200 kts | 211° |
| 2026-05-07 16:35 | 44.38726 | 19.92492 | 14689 ft | 201 kts | 204° |
| 2026-05-07 16:36 | 44.37422 | 19.91824 | 14901 ft | 203 kts | 201° |
| 2026-05-07 16:36 | 44.36089 | 19.91166 | 15132 ft | 203 kts | 202° |
| 2026-05-07 16:36 | 44.34753 | 19.90493 | 15362 ft | 204 kts | 203° |
| 2026-05-07 16:36 | 44.33425 | 19.89781 | 15580 ft | 205 kts | 204° |
| 2026-05-07 16:37 | 44.32091 | 19.89051 | 15802 ft | 205 kts | 204° |
| 2026-05-07 16:37 | 44.30758 | 19.88317 | 16015 ft | 206 kts | 204° |
| 2026-05-07 16:37 | 44.29420 | 19.87579 | 16209 ft | 207 kts | 204° |
| 2026-05-07 16:37 | 44.28074 | 19.86836 | 16416 ft | 208 kts | 204° |
| 2026-05-07 16:38 | 44.26741 | 19.86100 | 16610 ft | 209 kts | 204° |
| 2026-05-07 16:38 | 44.25384 | 19.85350 | 16827 ft | 210 kts | 204° |
| 2026-05-07 16:38 | 44.24022 | 19.84595 | 17048 ft | 211 kts | 204° |
| 2026-05-07 16:38 | 44.22649 | 19.83841 | 17265 ft | 211 kts | 204° |
| 2026-05-07 16:39 | 44.21275 | 19.83086 | 17466 ft | 212 kts | 204° |
| 2026-05-07 16:39 | 44.19921 | 19.82339 | 17652 ft | 213 kts | 204° |
| 2026-05-07 16:39 | 44.18533 | 19.81576 | 17843 ft | 214 kts | 204° |
| 2026-05-07 16:39 | 44.17148 | 19.80815 | 18020 ft | 214 kts | 204° |
| 2026-05-07 16:40 | 44.15755 | 19.80049 | 18188 ft | 215 kts | 204° |
| 2026-05-07 16:40 | 44.14357 | 19.79280 | 18349 ft | 216 kts | 204° |
| 2026-05-07 16:40 | 44.12958 | 19.78513 | 18499 ft | 216 kts | 204° |
| 2026-05-07 16:40 | 44.11575 | 19.77753 | 18646 ft | 216 kts | 204° |
| 2026-05-07 16:41 | 44.10170 | 19.76982 | 18805 ft | 217 kts | 204° |
| 2026-05-07 16:41 | 44.08758 | 19.76210 | 18921 ft | 220 kts | 204° |
| 2026-05-07 16:41 | 44.07315 | 19.75418 | 18959 ft | 225 kts | 204° |
| 2026-05-07 16:41 | 44.05843 | 19.74610 | 18994 ft | 230 kts | 204° |
| 2026-05-07 16:42 | 44.04337 | 19.73783 | 19013 ft | 235 kts | 204° |
| 2026-05-07 16:42 | 44.02820 | 19.72952 | 19020 ft | 239 kts | 204° |
| 2026-05-07 16:42 | 44.01254 | 19.72098 | 19020 ft | 244 kts | 204° |
| 2026-05-07 16:42 | 43.99659 | 19.71228 | 19019 ft | 247 kts | 204° |
| 2026-05-07 16:43 | 43.98046 | 19.70343 | 19020 ft | 249 kts | 204° |
| 2026-05-07 16:43 | 43.96421 | 19.69456 | 19019 ft | 252 kts | 204° |
| 2026-05-07 16:43 | 43.94803 | 19.68575 | 19028 ft | 254 kts | 204° |
| 2026-05-07 16:43 | 43.93148 | 19.67671 | 19020 ft | 255 kts | 204° |
| 2026-05-07 16:44 | 43.91491 | 19.66767 | 19018 ft | 256 kts | 204° |
| 2026-05-07 16:44 | 43.89824 | 19.65861 | 19022 ft | 257 kts | 204° |
| 2026-05-07 16:44 | 43.88150 | 19.64952 | 19026 ft | 258 kts | 204° |
| 2026-05-07 16:44 | 43.86495 | 19.64049 | 19031 ft | 259 kts | 204° |
| 2026-05-07 16:45 | 43.84810 | 19.63134 | 19025 ft | 260 kts | 204° |
| 2026-05-07 16:45 | 43.83120 | 19.62213 | 19019 ft | 260 kts | 204° |
| 2026-05-07 16:45 | 43.81435 | 19.61298 | 19022 ft | 260 kts | 204° |
| 2026-05-07 16:45 | 43.79767 | 19.60395 | 19022 ft | 260 kts | 204° |
| 2026-05-07 16:46 | 43.78080 | 19.59482 | 19021 ft | 260 kts | 204° |
| 2026-05-07 16:46 | 43.76388 | 19.58562 | 19032 ft | 260 kts | 204° |
| 2026-05-07 16:46 | 43.74697 | 19.57646 | 19030 ft | 261 kts | 204° |
| 2026-05-07 16:46 | 43.73002 | 19.56728 | 19025 ft | 261 kts | 204° |
| 2026-05-07 16:47 | 43.71311 | 19.55812 | 19029 ft | 261 kts | 204° |
| 2026-05-07 16:47 | 43.69631 | 19.54906 | 19022 ft | 261 kts | 204° |
| 2026-05-07 16:47 | 43.67932 | 19.53986 | 19019 ft | 261 kts | 204° |
| 2026-05-07 16:47 | 43.66238 | 19.53072 | 19023 ft | 260 kts | 204° |
| 2026-05-07 16:48 | 43.64548 | 19.52159 | 19026 ft | 260 kts | 204° |
| 2026-05-07 16:48 | 43.62878 | 19.51257 | 19030 ft | 261 kts | 204° |
| 2026-05-07 16:48 | 43.61186 | 19.50346 | 19032 ft | 261 kts | 204° |
| 2026-05-07 16:48 | 43.59487 | 19.49431 | 19032 ft | 261 kts | 204° |
| 2026-05-07 16:49 | 43.57801 | 19.48525 | 19022 ft | 261 kts | 204° |
| 2026-05-07 16:49 | 43.56112 | 19.47611 | 19031 ft | 261 kts | 204° |
| 2026-05-07 16:49 | 43.54414 | 19.46698 | 19030 ft | 261 kts | 204° |
| 2026-05-07 16:49 | 43.52715 | 19.45787 | 19032 ft | 261 kts | 204° |
| 2026-05-07 16:50 | 43.51041 | 19.44886 | 19036 ft | 261 kts | 204° |
| 2026-05-07 16:50 | 43.49346 | 19.43977 | 19021 ft | 261 kts | 204° |
| 2026-05-07 16:50 | 43.47652 | 19.43068 | 19027 ft | 260 kts | 204° |
| 2026-05-07 16:50 | 43.45967 | 19.42160 | 19041 ft | 260 kts | 204° |
| 2026-05-07 16:51 | 43.44276 | 19.41257 | 19040 ft | 261 kts | 204° |
| 2026-05-07 16:51 | 43.42583 | 19.40354 | 19028 ft | 261 kts | 204° |
| 2026-05-07 16:51 | 43.40889 | 19.39447 | 19043 ft | 261 kts | 204° |
| 2026-05-07 16:51 | 43.39194 | 19.38541 | 19044 ft | 261 kts | 204° |
| 2026-05-07 16:52 | 43.37518 | 19.37645 | 19038 ft | 261 kts | 204° |
| 2026-05-07 16:52 | 43.35823 | 19.36736 | 19039 ft | 262 kts | 204° |
| 2026-05-07 16:52 | 43.34117 | 19.35826 | 19039 ft | 262 kts | 204° |
| 2026-05-07 16:52 | 43.32415 | 19.34918 | 19041 ft | 262 kts | 204° |
| 2026-05-07 16:53 | 43.30711 | 19.34008 | 19048 ft | 262 kts | 204° |
| 2026-05-07 16:53 | 43.29013 | 19.33105 | 19046 ft | 262 kts | 204° |
| 2026-05-07 16:53 | 43.27335 | 19.32211 | 19039 ft | 261 kts | 204° |
| 2026-05-07 16:53 | 43.25637 | 19.31306 | 19044 ft | 261 kts | 204° |
| 2026-05-07 16:54 | 43.23935 | 19.30402 | 19049 ft | 261 kts | 204° |
| 2026-05-07 16:54 | 43.22236 | 19.29498 | 19052 ft | 261 kts | 204° |
| 2026-05-07 16:54 | 43.20546 | 19.28600 | 19047 ft | 261 kts | 204° |
| 2026-05-07 16:54 | 43.18866 | 19.27705 | 19058 ft | 261 kts | 204° |
| 2026-05-07 16:55 | 43.17168 | 19.26805 | 19064 ft | 261 kts | 204° |
| 2026-05-07 16:55 | 43.15467 | 19.25903 | 19053 ft | 262 kts | 204° |
| 2026-05-07 16:55 | 43.13765 | 19.25002 | 19051 ft | 262 kts | 204° |
| 2026-05-07 16:55 | 43.12085 | 19.24110 | 19066 ft | 261 kts | 204° |
| 2026-05-07 16:56 | 43.10385 | 19.23210 | 19062 ft | 261 kts | 204° |
| 2026-05-07 16:56 | 43.08682 | 19.22311 | 19065 ft | 261 kts | 204° |
| 2026-05-07 16:56 | 43.05316 | 19.20531 | 19069 ft | 260 kts | 204° |
| 2026-05-07 16:57 | 43.03624 | 19.19638 | 19075 ft | 260 kts | 204° |
| 2026-05-07 16:57 | 43.01933 | 19.18742 | 19077 ft | 260 kts | 204° |
| 2026-05-07 16:57 | 43.00241 | 19.17848 | 19071 ft | 261 kts | 204° |
| 2026-05-07 16:57 | 42.98540 | 19.16952 | 19069 ft | 262 kts | 204° |
| 2026-05-07 16:58 | 42.96858 | 19.16064 | 19074 ft | 262 kts | 204° |
| 2026-05-07 16:58 | 42.95150 | 19.15165 | 19077 ft | 262 kts | 204° |
| 2026-05-07 16:58 | 42.93461 | 19.14278 | 19079 ft | 262 kts | 204° |
| 2026-05-07 16:58 | 42.91750 | 19.13376 | 19075 ft | 263 kts | 204° |
| 2026-05-07 16:59 | 42.90038 | 19.12477 | 19083 ft | 263 kts | 204° |
| 2026-05-07 16:59 | 42.88343 | 19.11584 | 19083 ft | 264 kts | 204° |
| 2026-05-07 16:59 | 42.86630 | 19.10684 | 19079 ft | 264 kts | 204° |
| 2026-05-07 16:59 | 42.84913 | 19.09785 | 19082 ft | 264 kts | 204° |
| 2026-05-07 17:00 | 42.83197 | 19.08883 | 19070 ft | 264 kts | 204° |
| 2026-05-07 17:00 | 42.81478 | 19.07981 | 19073 ft | 263 kts | 204° |
| 2026-05-07 17:00 | 42.79785 | 19.07097 | 19079 ft | 264 kts | 204° |
| 2026-05-07 17:00 | 42.78064 | 19.06196 | 19083 ft | 264 kts | 204° |
| 2026-05-07 17:01 | 42.76347 | 19.05298 | 19079 ft | 264 kts | 204° |
| 2026-05-07 17:01 | 42.74630 | 19.04400 | 19077 ft | 264 kts | 204° |
| 2026-05-07 17:01 | 42.72907 | 19.03499 | 19081 ft | 264 kts | 204° |
| 2026-05-07 17:01 | 42.71216 | 19.02615 | 19064 ft | 264 kts | 204° |
| 2026-05-07 17:02 | 42.69498 | 19.01720 | 19074 ft | 264 kts | 204° |
| 2026-05-07 17:02 | 42.67785 | 19.00826 | 19084 ft | 263 kts | 204° |
| 2026-05-07 17:02 | 42.66068 | 18.99931 | 19085 ft | 263 kts | 204° |
| 2026-05-07 17:02 | 42.64355 | 18.99038 | 19075 ft | 263 kts | 204° |
| 2026-05-07 17:03 | 42.62669 | 18.98158 | 19078 ft | 262 kts | 204° |
| 2026-05-07 17:03 | 42.60964 | 18.97271 | 19073 ft | 262 kts | 204° |
| 2026-05-07 17:03 | 42.59255 | 18.96383 | 19079 ft | 263 kts | 204° |
| 2026-05-07 17:03 | 42.57541 | 18.95493 | 19067 ft | 263 kts | 204° |
| 2026-05-07 17:04 | 42.55850 | 18.94614 | 19078 ft | 262 kts | 204° |
| 2026-05-07 17:04 | 42.54141 | 18.93727 | 19085 ft | 262 kts | 204° |
| 2026-05-07 17:04 | 42.52432 | 18.92842 | 19076 ft | 262 kts | 204° |
| 2026-05-07 17:04 | 42.50719 | 18.91952 | 19073 ft | 262 kts | 204° |
| 2026-05-07 17:05 | 42.49035 | 18.91079 | 19078 ft | 262 kts | 204° |
| 2026-05-07 17:05 | 42.47324 | 18.90192 | 19069 ft | 263 kts | 204° |
| 2026-05-07 17:05 | 42.45615 | 18.89308 | 19075 ft | 262 kts | 204° |
| 2026-05-07 17:05 | 42.43908 | 18.88425 | 19077 ft | 262 kts | 204° |
| 2026-05-07 17:06 | 42.42773 | 18.87837 | 19075 ft | 262 kts | 204° |
| 2026-05-07 17:06 | 42.40514 | 18.86671 | 19074 ft | 262 kts | 204° |
| 2026-05-07 17:06 | 42.38813 | 18.85793 | 19068 ft | 261 kts | 204° |
| 2026-05-07 17:06 | 42.37119 | 18.84916 | 19073 ft | 260 kts | 204° |
| 2026-05-07 17:07 | 42.35993 | 18.84335 | 19075 ft | 260 kts | 204° |
| 2026-05-07 17:07 | 42.34295 | 18.83462 | 19076 ft | 260 kts | 205° |
| 2026-05-07 17:07 | 42.32601 | 18.82588 | 19083 ft | 260 kts | 204° |
| 2026-05-07 17:07 | 42.30903 | 18.81714 | 19074 ft | 260 kts | 204° |
| 2026-05-07 17:08 | 42.29227 | 18.80850 | 19079 ft | 261 kts | 204° |
| 2026-05-07 17:08 | 42.27524 | 18.79975 | 19073 ft | 261 kts | 204° |
| 2026-05-07 17:08 | 42.25827 | 18.79100 | 19055 ft | 261 kts | 204° |
| 2026-05-07 17:08 | 42.24127 | 18.78227 | 19069 ft | 260 kts | 204° |
| 2026-05-07 17:09 | 42.22454 | 18.77368 | 19068 ft | 260 kts | 205° |
| 2026-05-07 17:09 | 42.20761 | 18.76499 | 19069 ft | 259 kts | 205° |
| 2026-05-07 17:09 | 42.19072 | 18.75634 | 19070 ft | 259 kts | 205° |
| 2026-05-07 17:09 | 42.17379 | 18.74764 | 19067 ft | 259 kts | 205° |
| 2026-05-07 17:10 | 42.15715 | 18.73913 | 19068 ft | 259 kts | 205° |
| 2026-05-07 17:10 | 42.14026 | 18.73046 | 19066 ft | 259 kts | 205° |
| 2026-05-07 17:10 | 42.12338 | 18.72183 | 19062 ft | 258 kts | 205° |
| 2026-05-07 17:10 | 42.10656 | 18.71324 | 19062 ft | 258 kts | 205° |
| 2026-05-07 17:11 | 42.08998 | 18.70473 | 19061 ft | 258 kts | 205° |
| 2026-05-07 17:11 | 42.07315 | 18.69614 | 19058 ft | 258 kts | 205° |
| 2026-05-07 17:11 | 42.05634 | 18.68755 | 19057 ft | 258 kts | 205° |
| 2026-05-07 17:11 | 42.03953 | 18.67898 | 19056 ft | 258 kts | 205° |
| 2026-05-07 17:12 | 42.02271 | 18.67041 | 19059 ft | 258 kts | 205° |
| 2026-05-07 17:12 | 42.00616 | 18.66194 | 19059 ft | 257 kts | 205° |
| 2026-05-07 17:12 | 41.98931 | 18.65337 | 19056 ft | 257 kts | 205° |
| 2026-05-07 17:12 | 41.97253 | 18.64481 | 19060 ft | 257 kts | 205° |
| 2026-05-07 17:13 | 41.95576 | 18.63628 | 19056 ft | 257 kts | 205° |
| 2026-05-07 17:13 | 41.93917 | 18.62787 | 19054 ft | 257 kts | 205° |
| 2026-05-07 17:13 | 41.92242 | 18.61932 | 19052 ft | 257 kts | 205° |
| 2026-05-07 17:13 | 41.90567 | 18.61082 | 19055 ft | 257 kts | 205° |
| 2026-05-07 17:14 | 41.88890 | 18.60229 | 19055 ft | 257 kts | 205° |
| 2026-05-07 17:14 | 41.87246 | 18.59363 | 19053 ft | 253 kts | 211° |
| 2026-05-07 17:14 | 41.85978 | 18.57825 | 19059 ft | 245 kts | 236° |
| 2026-05-07 17:14 | 41.85084 | 18.55879 | 19055 ft | 244 kts | 243° |
| 2026-05-07 17:15 | 41.84299 | 18.53855 | 19054 ft | 245 kts | 244° |
| 2026-05-07 17:15 | 41.83520 | 18.51818 | 19051 ft | 245 kts | 243° |
| 2026-05-07 17:15 | 41.82717 | 18.49816 | 19047 ft | 246 kts | 242° |
| 2026-05-07 17:15 | 41.81870 | 18.47805 | 19051 ft | 247 kts | 242° |
| 2026-05-07 17:16 | 41.81030 | 18.45821 | 19048 ft | 247 kts | 242° |
| 2026-05-07 17:16 | 41.80182 | 18.43813 | 19046 ft | 247 kts | 242° |
| 2026-05-07 17:16 | 41.79330 | 18.41797 | 19048 ft | 247 kts | 242° |
| 2026-05-07 17:16 | 41.78479 | 18.39788 | 19048 ft | 247 kts | 242° |
| 2026-05-07 17:17 | 41.77638 | 18.37803 | 19047 ft | 248 kts | 242° |
| 2026-05-07 17:17 | 41.76783 | 18.35787 | 19047 ft | 248 kts | 242° |
| 2026-05-07 17:17 | 41.75930 | 18.33773 | 19047 ft | 248 kts | 242° |
| 2026-05-07 17:17 | 41.75073 | 18.31766 | 19045 ft | 248 kts | 242° |
| 2026-05-07 17:18 | 41.74231 | 18.29779 | 19043 ft | 248 kts | 242° |
| 2026-05-07 17:18 | 41.73377 | 18.27768 | 19045 ft | 248 kts | 241° |
| 2026-05-07 17:18 | 41.72519 | 18.25754 | 19045 ft | 248 kts | 242° |
| 2026-05-07 17:18 | 41.71663 | 18.23740 | 19043 ft | 248 kts | 241° |
| 2026-05-07 17:19 | 41.70814 | 18.21750 | 19046 ft | 248 kts | 242° |
| 2026-05-07 17:19 | 41.69956 | 18.19730 | 19044 ft | 249 kts | 242° |
| 2026-05-07 17:19 | 41.69094 | 18.17715 | 19046 ft | 249 kts | 242° |
| 2026-05-07 17:19 | 41.68248 | 18.15728 | 19042 ft | 249 kts | 242° |
| 2026-05-07 17:20 | 41.67390 | 18.13721 | 19043 ft | 249 kts | 242° |
| 2026-05-07 17:20 | 41.66529 | 18.11703 | 19040 ft | 249 kts | 241° |
| 2026-05-07 17:20 | 41.65668 | 18.09693 | 19042 ft | 249 kts | 242° |
| 2026-05-07 17:20 | 41.64818 | 18.07706 | 19041 ft | 249 kts | 241° |
| 2026-05-07 17:21 | 41.63959 | 18.05696 | 19039 ft | 249 kts | 242° |
| 2026-05-07 17:21 | 41.63096 | 18.03688 | 19042 ft | 249 kts | 241° |
| 2026-05-07 17:21 | 41.62237 | 18.01677 | 19038 ft | 249 kts | 242° |
| 2026-05-07 17:21 | 41.61374 | 17.99673 | 19040 ft | 249 kts | 241° |
| 2026-05-07 17:22 | 41.60511 | 17.97668 | 19038 ft | 249 kts | 242° |
| 2026-05-07 17:22 | 41.59663 | 17.95683 | 19036 ft | 249 kts | 241° |
| 2026-05-07 17:22 | 41.58797 | 17.93674 | 19037 ft | 249 kts | 241° |
| 2026-05-07 17:22 | 41.57932 | 17.91667 | 19037 ft | 248 kts | 241° |
| 2026-05-07 17:23 | 41.57069 | 17.89663 | 19034 ft | 249 kts | 241° |
| 2026-05-07 17:23 | 41.56217 | 17.87683 | 19035 ft | 249 kts | 241° |
| 2026-05-07 17:23 | 41.55351 | 17.85680 | 19035 ft | 249 kts | 241° |
| 2026-05-07 17:23 | 41.54480 | 17.83682 | 19033 ft | 248 kts | 241° |
| 2026-05-07 17:24 | 41.53606 | 17.81689 | 19032 ft | 248 kts | 241° |
| 2026-05-07 17:24 | 41.52726 | 17.79692 | 19033 ft | 248 kts | 240° |
| 2026-05-07 17:24 | 41.51865 | 17.77725 | 19033 ft | 248 kts | 241° |
| 2026-05-07 17:24 | 41.50998 | 17.75726 | 19030 ft | 248 kts | 241° |
| 2026-05-07 17:25 | 41.50135 | 17.73734 | 19029 ft | 248 kts | 241° |
| 2026-05-07 17:25 | 41.49270 | 17.71738 | 19027 ft | 248 kts | 241° |
| 2026-05-07 17:25 | 41.48405 | 17.69742 | 19026 ft | 248 kts | 241° |
| 2026-05-07 17:25 | 41.47553 | 17.67778 | 19028 ft | 248 kts | 241° |
| 2026-05-07 17:26 | 41.46691 | 17.65791 | 19029 ft | 248 kts | 241° |
| 2026-05-07 17:26 | 41.45825 | 17.63795 | 19029 ft | 247 kts | 241° |
| 2026-05-07 17:26 | 41.44965 | 17.61810 | 19029 ft | 247 kts | 241° |
| 2026-05-07 17:26 | 41.44101 | 17.59821 | 19026 ft | 247 kts | 241° |
| 2026-05-07 17:27 | 41.43234 | 17.57833 | 19023 ft | 247 kts | 241° |
| 2026-05-07 17:27 | 41.42379 | 17.55872 | 19023 ft | 247 kts | 241° |
| 2026-05-07 17:27 | 41.41516 | 17.53886 | 19024 ft | 247 kts | 241° |
| 2026-05-07 17:27 | 41.40651 | 17.51900 | 19023 ft | 247 kts | 241° |
| 2026-05-07 17:28 | 41.39786 | 17.49920 | 19024 ft | 247 kts | 241° |
| 2026-05-07 17:28 | 41.38916 | 17.47929 | 19022 ft | 248 kts | 241° |
| 2026-05-07 17:28 | 41.38053 | 17.45950 | 18906 ft | 252 kts | 241° |
| 2026-05-07 17:28 | 41.37161 | 17.43904 | 18789 ft | 256 kts | 241° |
| 2026-05-07 17:29 | 41.36256 | 17.41835 | 18669 ft | 259 kts | 240° |
| 2026-05-07 17:29 | 41.35342 | 17.39750 | 18550 ft | 262 kts | 240° |
| 2026-05-07 17:29 | 41.34428 | 17.37667 | 18438 ft | 264 kts | 240° |
| 2026-05-07 17:29 | 41.33500 | 17.35548 | 18323 ft | 265 kts | 240° |
| 2026-05-07 17:30 | 41.32565 | 17.33416 | 18195 ft | 267 kts | 240° |
| 2026-05-07 17:30 | 41.31624 | 17.31270 | 17941 ft | 271 kts | 240° |
| 2026-05-07 17:30 | 41.30674 | 17.29106 | 17560 ft | 270 kts | 240° |
| 2026-05-07 17:30 | 41.29726 | 17.26941 | 17199 ft | 272 kts | 240° |
| 2026-05-07 17:31 | 41.28781 | 17.24795 | 16843 ft | 273 kts | 240° |
| 2026-05-07 17:31 | 41.27818 | 17.22604 | 16486 ft | 275 kts | 240° |
| 2026-05-07 17:31 | 41.26847 | 17.20400 | 16126 ft | 275 kts | 239° |
| 2026-05-07 17:31 | 41.25879 | 17.18206 | 15784 ft | 274 kts | 239° |
| 2026-05-07 17:32 | 41.24923 | 17.16038 | 15434 ft | 274 kts | 239° |
| 2026-05-07 17:32 | 41.23959 | 17.13853 | 15095 ft | 273 kts | 239° |
| 2026-05-07 17:32 | 41.22998 | 17.11675 | 14758 ft | 272 kts | 239° |
| 2026-05-07 17:32 | 41.22041 | 17.09510 | 14419 ft | 271 kts | 239° |
| 2026-05-07 17:33 | 41.21086 | 17.07350 | 14093 ft | 270 kts | 239° |
| 2026-05-07 17:33 | 41.20148 | 17.05230 | 13763 ft | 269 kts | 238° |
| 2026-05-07 17:33 | 41.19200 | 17.03090 | 13391 ft | 268 kts | 238° |
| 2026-05-07 17:33 | 41.18251 | 17.00953 | 13030 ft | 267 kts | 238° |
| 2026-05-07 17:34 | 41.17308 | 16.98829 | 12672 ft | 267 kts | 238° |
| 2026-05-07 17:34 | 41.16366 | 16.96707 | 12316 ft | 266 kts | 238° |
| 2026-05-07 17:34 | 41.15436 | 16.94614 | 11983 ft | 265 kts | 238° |
| 2026-05-07 17:34 | 41.14503 | 16.92510 | 11630 ft | 264 kts | 238° |
| 2026-05-07 17:35 | 41.13568 | 16.90408 | 11303 ft | 263 kts | 238° |
| 2026-05-07 17:35 | 41.12651 | 16.88347 | 10978 ft | 261 kts | 237° |
| 2026-05-07 17:35 | 41.11732 | 16.86280 | 10657 ft | 259 kts | 237° |
| 2026-05-07 17:35 | 41.10811 | 16.84216 | 10331 ft | 258 kts | 237° |
| 2026-05-07 17:36 | 41.09900 | 16.82175 | 10019 ft | 256 kts | 237° |
| 2026-05-07 17:36 | 41.08996 | 16.80143 | 9683 ft | 256 kts | 237° |
| 2026-05-07 17:36 | 41.08087 | 16.78115 | 9344 ft | 255 kts | 237° |
| 2026-05-07 17:36 | 41.07193 | 16.76119 | 9000 ft | 254 kts | 237° |
| 2026-05-07 17:37 | 41.06297 | 16.74112 | 8666 ft | 253 kts | 237° |
| 2026-05-07 17:37 | 41.05399 | 16.72105 | 8335 ft | 252 kts | 237° |
| 2026-05-07 17:37 | 41.04505 | 16.70108 | 8009 ft | 251 kts | 237° |
| 2026-05-07 17:37 | 41.03624 | 16.68143 | 7698 ft | 250 kts | 236° |
| 2026-05-07 17:38 | 41.02734 | 16.66160 | 7389 ft | 250 kts | 236° |
| 2026-05-07 17:38 | 41.01845 | 16.64177 | 7096 ft | 249 kts | 236° |
| 2026-05-07 17:38 | 41.00954 | 16.62198 | 6783 ft | 249 kts | 236° |
| 2026-05-07 17:38 | 41.00072 | 16.60231 | 6479 ft | 248 kts | 236° |
| 2026-05-07 17:39 | 40.99199 | 16.58293 | 6157 ft | 247 kts | 236° |
| 2026-05-07 17:39 | 40.98334 | 16.56362 | 5850 ft | 239 kts | 236° |
| 2026-05-07 17:39 | 40.97508 | 16.54519 | 5653 ft | 225 kts | 237° |
| 2026-05-07 17:39 | 40.97170 | 16.52595 | 5479 ft | 218 kts | 272° |
| 2026-05-07 17:40 | 40.97829 | 16.50783 | 5223 ft | 226 kts | 311° |
| 2026-05-07 17:40 | 40.99150 | 16.49671 | 4957 ft | 228 kts | 331° |
| 2026-05-07 17:40 | 41.00584 | 16.48749 | 4704 ft | 230 kts | 333° |
| 2026-05-07 17:40 | 41.02040 | 16.47853 | 4423 ft | 231 kts | 333° |
| 2026-05-07 17:41 | 41.03556 | 16.47276 | 4152 ft | 228 kts | 2° |
| 2026-05-07 17:41 | 41.05038 | 16.47926 | 3899 ft | 224 kts | 39° |
| 2026-05-07 17:41 | 41.06264 | 16.49153 | 3612 ft | 223 kts | 42° |
| 2026-05-07 17:41 | 41.07197 | 16.50698 | 3342 ft | 211 kts | 75° |
| 2026-05-07 17:42 | 41.07634 | 16.52529 | 3173 ft | 206 kts | 79° |
| 2026-05-07 17:42 | 41.08028 | 16.54336 | 3080 ft | 202 kts | 81° |
| 2026-05-07 17:42 | 41.08399 | 16.56094 | 2998 ft | 199 kts | 81° |
| 2026-05-07 17:42 | 41.08760 | 16.57812 | 2790 ft | 188 kts | 81° |
| 2026-05-07 17:43 | 41.09116 | 16.59445 | 2560 ft | 180 kts | 77° |
| 2026-05-07 17:43 | 41.09574 | 16.60957 | 2319 ft | 173 kts | 75° |
| 2026-05-07 17:43 | 41.09934 | 16.62150 | 2116 ft | 169 kts | 76° |
| 2026-05-07 17:43 | 41.10332 | 16.63611 | 1891 ft | 167 kts | 77° |
| 2026-05-07 17:44 | 41.10714 | 16.65013 | 1672 ft | 158 kts | 75° |
| 2026-05-07 17:44 | 41.11090 | 16.66323 | 1473 ft | 143 kts | 74° |
| 2026-05-07 17:44 | 41.11424 | 16.67453 | 1282 ft | 122 kts | 76° |
| 2026-05-07 17:44 | 41.11731 | 16.68493 | 1121 ft | 120 kts | 78° |
| 2026-05-07 17:45 | 41.12011 | 16.69531 | 946 ft | 117 kts | 78° |
| 2026-05-07 17:45 | 41.12265 | 16.70546 | 799 ft | 116 kts | 76° |
| 2026-05-07 17:45 | 41.12553 | 16.71541 | 656 ft | 116 kts | 72° |
| 2026-05-07 17:45 | 41.12861 | 16.72540 | 485 ft | 118 kts | 72° |
| 2026-05-07 17:46 | 41.13142 | 16.73545 | 329 ft | 116 kts | 71° |
| 2026-05-07 17:46 | 41.13418 | 16.74523 | 218 ft | 111 kts | 70° |
| 2026-05-07 17:46 | 41.13689 | 16.75479 | 166 ft | 108 kts | 69° |
| 2026-05-07 17:46 | 41.13868 | 16.76114 | 148 ft | 57 kts | 69° |
| 2026-05-07 17:47 | 41.13950 | 16.76399 | 138 ft | 23 kts | 69° |
| 2026-05-07 17:47 | 41.14000 | 16.76582 | 132 ft | 19 kts | 78° |
| 2026-05-07 17:47 | 41.13980 | 16.76689 | 127 ft | 8 kts | 117° |
| 2026-05-07 17:47 | 41.13928 | 16.76705 | 130 ft | 9 kts | 200° |
| 2026-05-07 17:48 | 41.13879 | 16.76663 | 130 ft | 8 kts | 214° |
| 2026-05-07 17:48 | 41.13835 | 16.76622 | 133 ft | 7 kts | 215° |
| 2026-05-07 17:48 | 41.13806 | 16.76566 | 135 ft | 8 kts | 232° |
| 2026-05-07 17:48 | 41.13764 | 16.76556 | 136 ft | 5 kts | 163° |
| 2026-05-07 17:49 | 41.13725 | 16.76566 | 136 ft | 9 kts | 185° |
| 2026-05-07 17:49 | 41.13659 | 16.76523 | 138 ft | 10 kts | 221° |
| 2026-05-07 17:49 | 41.13629 | 16.76435 | 141 ft | 11 kts | 248° |
| 2026-05-07 17:49 | 41.13603 | 16.76343 | 145 ft | 11 kts | 249° |
| 2026-05-07 17:50 | 41.13575 | 16.76245 | 148 ft | 12 kts | 249° |
| 2026-05-07 17:50 | 41.13557 | 16.76167 | 151 ft | 7 kts | 282° |
| 2026-05-07 17:50 | 41.13610 | 16.76139 | 150 ft | 7 kts | 5° |
| 2026-05-07 17:50 | 41.13612 | 16.76140 | 150 ft | 0 kts | 9° |